CST,Max TemperatureF,Mean TemperatureF,Min TemperatureF,Max Dew PointF,MeanDew PointF,Min DewpointF,Max Humidity, Mean Humidity, Min Humidity, Max Sea Level PressureIn, Mean Sea Level PressureIn, Min Sea Level PressureIn, Max VisibilityMiles, Mean VisibilityMiles, Min VisibilityMiles, Max Wind SpeedMPH, Mean Wind SpeedMPH, Max Gust SpeedMPH,PrecipitationIn, CloudCover, Events, WindDirDegrees
2013-1-1,37,30,24,36,26,20,93,86,78,30.34,30.23,30.07,8,4,1,10,7,18,0.00,7,Snow,331
2013-1-2,44,32,21,27,23,19,93,77,45,30.34,30.30,30.22,10,6,3,15,3,20,0.00,3,,262
2013-1-3,41,32,21,25,22,18,89,72,49,30.51,30.45,30.35,10,9,7,9,2,,0.00,0,,299
2013-1-4,46,32,19,28,23,16,85,61,39,30.49,30.41,30.30,10,10,8,15,6,22,0.00,4,,199
2013-1-5,50,42,30,33,29,22,77,62,44,30.34,30.25,30.17,10,10,9,14,9,21,0.00,4,Rain,227
2013-1-6,52,36,21,26,21,18,85,59,26,30.47,30.39,30.35,10,10,8,7,2,,0.00,0,,281
2013-1-7,52,40,28,30,22,19,70,50,30,30.33,30.21,30.09,10,10,10,16,8,21,0.00,0,,175
2013-1-8,55,44,34,45,38,27,89,74,45,30.18,30.07,30.01,10,7,2,15,8,,0.02,5,Rain,165
2013-1-9,52,48,44,45,42,38,93,85,59,30.35,30.23,30.12,10,4,2,15,5,22,0.14,7,Rain,43
2013-1-10,59,52,46,54,49,44,96,90,81,30.12,29.90,29.79,10,5,1,14,7,22,0.25,8,Rain,147
2013-1-11,69,58,48,49,44,30,90,62,35,29.82,29.73,29.64,10,10,10,22,14,32,0.00,0,,199
2013-1-12,55,41,26,31,23,15,86,66,28,30.12,29.98,29.84,10,9,2,15,9,28,0.05,5,Rain,4
2013-1-13,32,26,19,15,11,9,66,56,42,30.43,30.30,30.14,10,10,10,10,7,20,0.00,0,,4
2013-1-14,35,26,17,16,12,9,78,58,34,30.48,30.41,30.35,10,10,10,12,4,,0.00,3,,61
2013-1-15,36,28,19,18,14,11,78,61,36,30.35,30.30,30.25,10,10,8,7,4,,0.00,4,,17
2013-1-16,48,32,16,25,17,10,81,57,28,30.26,30.21,30.14,10,10,9,13,5,,0.00,1,,216
2013-1-17,55,40,26,31,27,22,84,64,36,30.54,30.45,30.27,10,10,10,9,3,,0.00,0,,351
2013-1-18,61,48,34,30,28,27,75,51,30,30.49,30.33,30.17,10,10,10,21,10,30,0.00,0,,187
2013-1-19,64,52,37,33,32,30,73,50,30,30.23,30.14,30.09,10,10,10,13,9,,0.00,0,Rain,213
2013-1-20,64,46,28,33,27,15,85,56,30,30.32,30.21,30.12,10,10,9,12,4,23,0.00,0,,38
2013-1-21,43,32,21,14,12,10,65,45,26,30.48,30.37,30.30,10,10,10,8,6,,0.00,0,,54
2013-1-22,57,41,25,32,22,14,69,49,28,30.32,30.24,30.15,10,10,10,13,5,21,0.00,0,,174
2013-1-23,66,46,27,44,35,24,89,68,44,30.25,30.19,30.11,9,7,4,10,2,,0.00,0,,57
2013-1-24,48,39,30,38,24,19,82,63,52,30.28,30.21,30.15,10,8,5,14,9,22,0.00,4,,42
2013-1-25,51,40,28,29,26,25,88,71,36,30.28,30.21,30.14,8,5,2,8,4,,0.00,4,,10
2013-1-26,50,39,28,43,35,24,93,77,63,30.25,30.17,30.06,8,5,2,14,5,21,0.00,5,Rain,154
2013-1-27,68,56,44,56,51,42,100,81,61,30.03,29.91,29.81,10,6,1,25,15,33,0.00,6,,179
2013-1-28,75,68,62,61,59,55,87,71,55,29.89,29.81,29.68,10,9,7,25,17,34,0.00,3,,189
2013-1-29,70,56,41,63,51,33,100,86,71,29.68,29.59,29.48,10,6,1,23,11,33,0.92,7,Rain-Thunderstorm,307
2013-1-30,45,36,28,34,26,17,81,65,36,30.08,29.92,29.67,10,10,10,20,11,36,0.00,5,Rain,319
2013-1-31,55,40,24,28,20,10,72,54,23,30.46,30.21,30.04,10,10,10,15,6,25,0.00,0,,33